Time;durP1;ratioP1;P1;durP2;ratioP2;P2;SDS_P1;SDS_P2;PMS_P1;PMS_P2;Temp;Humidity;BMP_temperature;BMP_pressure;BME280_temperature;BME280_humidity;BME280_pressure;Samples;Min_cycle;Max_cycle;Signal;HPM_P1;HPM_P2
2021/05/04 00:01:17;;;;;;;;;;;17.10;99.90;;;;;;5012790;28;19913;-70
2021/05/04 00:03:43;;;;;;;;;;;17.10;99.90;;;;;;5012800;28;19932;-70
2021/05/04 00:06:10;;;;;;;;;;;17.00;99.90;;;;;;5012885;28;19910;-70
2021/05/04 00:08:37;;;;;;;;;;;17.00;99.90;;;;;;5012803;28;20315;-70
2021/05/04 00:11:03;;;;;;;;;;;16.90;99.90;;;;;;5012677;28;19940;-69
2021/05/04 00:13:30;;;;;;;;;;;17.00;99.90;;;;;;5012791;28;19913;-70
2021/05/04 00:15:57;;;;;;;;;;;17.00;99.90;;;;;;5012555;28;19909;-68
2021/05/04 00:18:23;;;;;;;;;;;17.00;99.90;;;;;;5013328;28;20338;-68
2021/05/04 00:20:52;;;;;;;;;;;16.90;99.90;;;;;;5012244;28;19976;-69
2021/05/04 00:23:19;;;;;;;;;;;16.90;99.90;;;;;;5012717;28;19909;-70
2021/05/04 00:25:46;;;;;;;;;;;16.80;99.90;;;;;;5012793;28;19910;-69
2021/05/04 00:28:13;;;;;;;;;;;16.80;99.90;;;;;;5014016;28;20407;-68
2021/05/04 00:30:40;;;;;;;;;;;16.80;99.90;;;;;;5016028;28;19985;-69
2021/05/04 00:33:06;;;;;;;;;;;16.70;99.90;;;;;;5015888;28;20361;-70
2021/05/04 00:35:33;;;;;;;;;;;16.70;99.90;;;;;;5016003;28;19920;-69
2021/05/04 00:38:00;;;;;;;;;;;16.70;99.90;;;;;;5015863;28;19911;-69
2021/05/04 00:40:26;;;;;;;;;;;16.60;99.90;;;;;;5015673;28;19909;-69
2021/05/04 00:42:53;;;;;;;;;;;16.60;99.90;;;;;;5015651;28;19921;-69
2021/05/04 00:45:20;;;;;;;;;;;16.60;99.90;;;;;;5015618;28;20032;-68
2021/05/04 00:47:46;;;;;;;;;;;16.60;99.90;;;;;;5015735;28;19917;-69
2021/05/04 00:50:13;;;;;;;;;;;16.60;99.90;;;;;;5015748;28;19913;-69
2021/05/04 00:52:40;;;;;;;;;;;16.50;99.90;;;;;;5015920;28;19964;-68
2021/05/04 00:55:07;;;;;;;;;;;16.60;99.90;;;;;;5015649;28;20311;-68
2021/05/04 00:57:35;;;;;;;;;;;16.60;99.90;;;;;;5015675;28;19921;-68
2021/05/04 01:00:04;;;;;;;;;;;16.50;99.90;;;;;;4997783;28;19924;-68
2021/05/04 01:02:34;;;;;;;;;;;16.50;99.90;;;;;;5015493;28;19956;-69
2021/05/04 01:05:01;;;;;;;;;;;16.50;99.90;;;;;;5015333;28;19917;-68
2021/05/04 01:07:28;;;;;;;;;;;16.40;99.90;;;;;;5015510;28;19913;-68
2021/05/04 01:09:55;;;;;;;;;;;16.40;99.90;;;;;;5015719;28;19932;-70
2021/05/04 01:12:22;;;;;;;;;;;16.30;99.90;;;;;;5015737;28;19949;-68
2021/05/04 01:14:49;;;;;;;;;;;16.30;99.90;;;;;;5015151;28;19921;-68
2021/05/04 01:17:16;;;;;;;;;;;16.30;99.90;;;;;;5015040;28;20262;-69
2021/05/04 01:19:42;;;;;;;;;;;16.10;99.90;;;;;;5015276;28;19968;-68
2021/05/04 01:22:09;;;;;;;;;;;16.30;99.90;;;;;;5015248;28;19913;-71
2021/05/04 01:24:36;;;;;;;;;;;16.30;99.90;;;;;;5015367;28;19909;-68
2021/05/04 01:27:02;;;;;;;;;;;16.40;99.90;;;;;;5015068;28;20083;-70
2021/05/04 01:29:29;;;;;;;;;;;16.30;99.90;;;;;;5014966;28;20036;-68
2021/05/04 01:31:56;;;;;;;;;;;16.20;99.90;;;;;;4997581;28;19914;-69
2021/05/04 01:34:22;;;;;;;;;;;16.10;99.90;;;;;;5014949;28;20387;-70
2021/05/04 01:36:49;;;;;;;;;;;16.00;99.90;;;;;;5014851;28;20290;-69
2021/05/04 01:39:16;;;;;;;;;;;16.00;99.90;;;;;;5014274;28;19918;-69
2021/05/04 01:41:43;;;;;;;;;;;16.00;99.90;;;;;;5014845;28;20352;-70
2021/05/04 01:44:10;;;;;;;;;;;16.00;99.90;;;;;;5014706;28;20352;-68
2021/05/04 01:46:37;;;;;;;;;;;16.10;99.90;;;;;;4997176;28;19936;-68
2021/05/04 01:49:06;;;;;;;;;;;16.10;99.90;;;;;;5014595;28;20012;-68
2021/05/04 01:51:33;;;;;;;;;;;16.10;99.90;;;;;;5014426;28;19913;-69
2021/05/04 01:54:00;;;;;;;;;;;16.20;99.90;;;;;;5014566;28;19992;-68
2021/05/04 01:56:27;;;;;;;;;;;16.20;99.90;;;;;;5014723;28;19910;-69
2021/05/04 01:59:01;;;;;;;;;;;16.20;99.90;;;;;;5013886;28;20323;-69
2021/05/04 02:01:28;;;;;;;;;;;16.10;99.90;;;;;;5014531;28;19961;-68
2021/05/04 02:03:54;;;;;;;;;;;16.10;99.90;;;;;;5014497;28;19910;-70
2021/05/04 02:06:21;;;;;;;;;;;16.00;99.90;;;;;;5014499;28;19929;-68
2021/05/04 02:08:47;;;;;;;;;;;16.10;99.90;;;;;;5014324;28;19910;-69
2021/05/04 02:11:14;;;;;;;;;;;16.10;99.90;;;;;;5014289;28;19920;-69
2021/05/04 02:13:41;;;;;;;;;;;16.20;99.90;;;;;;5014133;28;19909;-70
2021/05/04 02:16:08;;;;;;;;;;;16.10;99.90;;;;;;5014276;28;19910;-70
2021/05/04 02:18:35;;;;;;;;;;;16.10;99.90;;;;;;5013993;28;19924;-69
2021/05/04 02:21:01;;;;;;;;;;;16.20;99.90;;;;;;5013912;28;19914;-70
2021/05/04 02:23:28;;;;;;;;;;;16.20;99.90;;;;;;5013990;28;19909;-69
2021/05/04 02:25:55;;;;;;;;;;;16.20;99.90;;;;;;5014108;28;20414;-68
2021/05/04 02:28:21;;;;;;;;;;;16.10;99.90;;;;;;5013906;28;19910;-69
2021/05/04 02:30:48;;;;;;;;;;;16.10;99.90;;;;;;5013745;28;19914;-68
2021/05/04 02:33:15;;;;;;;;;;;16.20;99.90;;;;;;5013895;28;20008;-69
2021/05/04 02:35:41;;;;;;;;;;;16.20;99.90;;;;;;5014031;28;19944;-70
2021/05/04 02:38:08;;;;;;;;;;;16.10;99.90;;;;;;5014214;28;19910;-70
2021/05/04 02:40:34;;;;;;;;;;;16.00;99.90;;;;;;5013928;28;20349;-71
2021/05/04 02:43:01;;;;;;;;;;;16.00;99.90;;;;;;5013896;28;19964;-69
2021/05/04 02:45:28;;;;;;;;;;;16.00;99.90;;;;;;5013714;28;19922;-70
2021/05/04 02:47:54;;;;;;;;;;;15.80;99.90;;;;;;5013720;28;19914;-71
2021/05/04 02:50:21;;;;;;;;;;;15.80;99.90;;;;;;5013491;28;20364;-71
2021/05/04 02:52:48;;;;;;;;;;;15.80;99.90;;;;;;5012626;28;19909;-69
2021/05/04 02:55:16;;;;;;;;;;;15.80;99.90;;;;;;5013537;28;19914;-70
2021/05/04 02:57:43;;;;;;;;;;;15.80;99.90;;;;;;5013497;28;19932;-70
2021/05/04 03:00:10;;;;;;;;;;;15.90;99.90;;;;;;5013167;28;19922;-69
2021/05/04 03:02:37;;;;;;;;;;;15.90;99.90;;;;;;5013605;28;19909;-69
2021/05/04 03:05:03;;;;;;;;;;;15.80;99.90;;;;;;5013360;28;19913;-72
2021/05/04 03:07:30;;;;;;;;;;;15.80;99.90;;;;;;5013387;28;19952;-69
2021/05/04 03:09:57;;;;;;;;;;;16.00;99.90;;;;;;5013373;28;19920;-69
2021/05/04 03:12:23;;;;;;;;;;;16.00;99.90;;;;;;5013477;28;20053;-69
2021/05/04 03:14:50;;;;;;;;;;;16.00;99.90;;;;;;5013025;28;20000;-71
2021/05/04 03:17:17;;;;;;;;;;;16.00;99.90;;;;;;5012551;28;19916;-69
2021/05/04 03:19:43;;;;;;;;;;;16.00;99.90;;;;;;5013347;28;20001;-69
2021/05/04 03:22:10;;;;;;;;;;;16.00;99.90;;;;;;5013299;28;20328;-71
2021/05/04 03:24:36;;;;;;;;;;;16.00;99.90;;;;;;5013240;28;20372;-69
2021/05/04 03:27:03;;;;;;;;;;;16.00;99.90;;;;;;5013153;28;19972;-69
2021/05/04 03:29:30;;;;;;;;;;;15.90;99.90;;;;;;5012960;28;19909;-69
2021/05/04 03:31:56;;;;;;;;;;;15.80;99.90;;;;;;5013111;28;19916;-68
2021/05/04 03:34:23;;;;;;;;;;;15.80;99.90;;;;;;5012815;28;19909;-68
2021/05/04 03:36:50;;;;;;;;;;;15.70;99.90;;;;;;5012805;28;19992;-68
2021/05/04 03:39:16;;;;;;;;;;;15.70;99.90;;;;;;5013105;28;20404;-67
2021/05/04 03:41:43;;;;;;;;;;;15.80;99.90;;;;;;5013099;28;20287;-68
2021/05/04 03:44:10;;;;;;;;;;;15.80;99.90;;;;;;5013046;28;20275;-67
2021/05/04 03:46:38;;;;;;;;;;;15.70;99.90;;;;;;5013014;28;20379;-67
2021/05/04 03:49:04;;;;;;;;;;;15.70;99.90;;;;;;4995350;28;19918;-68
2021/05/04 03:51:31;;;;;;;;;;;15.80;99.90;;;;;;5013029;28;20309;-68
2021/05/04 03:53:58;;;;;;;;;;;15.80;99.90;;;;;;5013170;28;20560;-69
2021/05/04 03:56:24;;;;;;;;;;;15.90;99.90;;;;;;4995696;28;20388;-68
2021/05/04 03:58:51;;;;;;;;;;;15.90;99.90;;;;;;5012658;28;19928;-69
2021/05/04 04:01:18;;;;;;;;;;;16.00;99.90;;;;;;5012868;28;19910;-69
2021/05/04 04:03:44;;;;;;;;;;;15.90;99.90;;;;;;5015169;28;19909;-69
2021/05/04 04:06:11;;;;;;;;;;;15.90;99.90;;;;;;5016649;28;20343;-68
2021/05/04 04:08:38;;;;;;;;;;;15.80;99.90;;;;;;5016419;28;19909;-69
2021/05/04 04:11:04;;;;;;;;;;;15.90;99.90;;;;;;5017222;28;19916;-70
2021/05/04 04:13:33;;;;;;;;;;;16.00;99.90;;;;;;5016306;28;19968;-70
2021/05/04 04:16:00;;;;;;;;;;;16.00;99.90;;;;;;5016372;28;19909;-71
2021/05/04 04:18:26;;;;;;;;;;;16.00;99.90;;;;;;5016217;28;19924;-69
2021/05/04 04:20:53;;;;;;;;;;;16.00;99.90;;;;;;5016285;28;19909;-71
2021/05/04 04:23:20;;;;;;;;;;;16.10;99.90;;;;;;5016304;28;20309;-69
2021/05/04 04:25:46;;;;;;;;;;;16.10;99.90;;;;;;5016289;28;19940;-69
2021/05/04 04:28:13;;;;;;;;;;;16.20;99.90;;;;;;5009144;28;19961;-69
2021/05/04 04:30:40;;;;;;;;;;;16.20;99.90;;;;;;5000867;28;19917;-68
2021/05/04 04:33:06;;;;;;;;;;;16.10;99.90;;;;;;4995439;28;19910;-70
2021/05/04 04:35:33;;;;;;;;;;;16.00;99.90;;;;;;4995899;28;19913;-69
2021/05/04 04:38:00;;;;;;;;;;;15.80;99.90;;;;;;5011841;28;19916;-67
2021/05/04 04:40:26;;;;;;;;;;;15.70;99.90;;;;;;5015991;28;19910;-67
2021/05/04 04:42:53;;;;;;;;;;;15.60;99.90;;;;;;5015603;28;19929;-69
2021/05/04 04:45:20;;;;;;;;;;;15.60;99.90;;;;;;5015936;28;19909;-70
2021/05/04 04:47:46;;;;;;;;;;;15.60;99.90;;;;;;5015798;28;19916;-70
2021/05/04 04:50:13;;;;;;;;;;;15.60;99.90;;;;;;5015930;28;19909;-67
2021/05/04 04:52:40;;;;;;;;;;;15.50;99.90;;;;;;5015743;28;19932;-69
2021/05/04 04:55:07;;;;;;;;;;;15.50;99.90;;;;;;5015629;28;19980;-68
2021/05/04 04:57:34;;;;;;;;;;;15.50;99.90;;;;;;5015394;28;19909;-66
2021/05/04 05:00:01;;;;;;;;;;;15.40;99.90;;;;;;5015510;28;19921;-68
2021/05/04 05:02:28;;;;;;;;;;;15.50;99.90;;;;;;5015686;28;19916;-67
2021/05/04 05:04:54;;;;;;;;;;;15.40;99.90;;;;;;5015328;28;19909;-68
2021/05/04 05:07:21;;;;;;;;;;;15.30;99.90;;;;;;5015596;28;19939;-70
2021/05/04 05:09:47;;;;;;;;;;;15.10;99.90;;;;;;5015526;28;19909;-67
2021/05/04 05:12:14;;;;;;;;;;;15.00;99.90;;;;;;5015480;28;19963;-67
2021/05/04 05:14:41;;;;;;;;;;;15.00;99.90;;;;;;5013945;28;19928;-70
2021/05/04 05:17:10;;;;;;;;;;;15.10;99.90;;;;;;5015131;28;19997;-70
2021/05/04 05:19:37;;;;;;;;;;;15.10;99.90;;;;;;5015163;28;19917;-70
2021/05/04 05:22:03;;;;;;;;;;;15.10;99.90;;;;;;5014999;28;19916;-70
2021/05/04 05:24:30;;;;;;;;;;;15.10;99.90;;;;;;5014895;28;19958;-70
2021/05/04 05:26:57;;;;;;;;;;;15.10;99.90;;;;;;5014841;28;19910;-68
2021/05/04 05:29:24;;;;;;;;;;;15.10;99.90;;;;;;5014594;28;19918;-71
2021/05/04 05:31:50;;;;;;;;;;;15.20;99.90;;;;;;5014926;28;19921;-67
2021/05/04 05:34:17;;;;;;;;;;;15.20;99.90;;;;;;5015090;28;19959;-67
2021/05/04 05:36:44;;;;;;;;;;;15.20;99.90;;;;;;5014870;28;20264;-69
2021/05/04 05:39:10;;;;;;;;;;;15.30;99.90;;;;;;5014851;28;19929;-70
2021/05/04 05:41:37;;;;;;;;;;;15.40;99.90;;;;;;5015426;28;20291;-71
2021/05/04 05:44:05;;;;;;;;;;;15.50;99.90;;;;;;5014771;28;19913;-70
2021/05/04 05:46:31;;;;;;;;;;;15.60;99.90;;;;;;5014717;28;19916;-68
2021/05/04 05:48:58;;;;;;;;;;;15.60;99.90;;;;;;5014649;28;19910;-69
2021/05/04 05:51:25;;;;;;;;;;;15.70;99.90;;;;;;5014793;28;20256;-68
2021/05/04 05:53:53;;;;;;;;;;;15.70;99.90;;;;;;5014607;28;19909;-68
2021/05/04 05:56:19;;;;;;;;;;;15.70;99.90;;;;;;5014604;28;19996;-69
2021/05/04 05:58:46;;;;;;;;;;;15.80;99.90;;;;;;5014162;28;19917;-69
2021/05/04 06:01:12;;;;;;;;;;;15.80;99.90;;;;;;5014574;28;20376;-69
2021/05/04 06:03:39;;;;;;;;;;;15.90;99.90;;;;;;5014502;28;19916;-69
2021/05/04 06:06:06;;;;;;;;;;;15.90;99.90;;;;;;5014330;28;19948;-66
2021/05/04 06:08:32;;;;;;;;;;;15.90;99.90;;;;;;5014383;28;19916;-68
2021/05/04 06:10:59;;;;;;;;;;;15.80;99.90;;;;;;5013977;28;19964;-67
2021/05/04 06:13:26;;;;;;;;;;;15.60;99.90;;;;;;5014207;28;20289;-68
2021/05/04 06:15:52;;;;;;;;;;;15.60;99.90;;;;;;5014066;28;20360;-68
2021/05/04 06:18:19;;;;;;;;;;;15.50;99.90;;;;;;5013872;28;19909;-70
2021/05/04 06:20:46;;;;;;;;;;;15.30;99.90;;;;;;5014109;28;19910;-72
2021/05/04 06:23:13;;;;;;;;;;;15.30;99.90;;;;;;5014113;28;19917;-72
2021/05/04 06:25:40;;;;;;;;;;;15.30;99.90;;;;;;5013517;28;19913;-70
2021/05/04 06:28:09;;;;;;;;;;;15.40;99.90;;;;;;5013896;28;20316;-69
2021/05/04 06:30:37;;;;;;;;;;;15.40;99.90;;;;;;5013962;28;20383;-69
2021/05/04 06:33:11;;;;;;;;;;;15.40;99.90;;;;;;5013593;28;20001;-70
2021/05/04 06:35:42;;;;;;;;;;;15.40;99.90;;;;;;5013796;28;20411;-69
2021/05/04 06:38:12;;;;;;;;;;;15.40;99.90;;;;;;4996009;28;20075;-69
2021/05/04 06:40:39;;;;;;;;;;;15.40;99.90;;;;;;5013577;28;19981;-69
2021/05/04 06:43:06;;;;;;;;;;;15.50;99.90;;;;;;5013541;28;19910;-69
2021/05/04 06:45:33;;;;;;;;;;;15.50;99.90;;;;;;5013550;28;19996;-69
2021/05/04 06:48:00;;;;;;;;;;;15.50;99.90;;;;;;5013729;28;19913;-69
2021/05/04 06:50:26;;;;;;;;;;;15.50;99.90;;;;;;5017494;28;19909;-70
2021/05/04 06:52:53;;;;;;;;;;;15.50;99.90;;;;;;5022127;28;20296;-71
2021/05/04 06:55:20;;;;;;;;;;;15.50;99.90;;;;;;5021957;28;19916;-69
2021/05/04 06:57:46;;;;;;;;;;;15.50;99.90;;;;;;5018412;28;19933;-69
2021/05/04 07:00:13;;;;;;;;;;;15.50;99.90;;;;;;5026018;28;19918;-66
2021/05/04 07:02:40;;;;;;;;;;;15.40;99.90;;;;;;5030484;28;19910;-69
2021/05/04 07:05:08;;;;;;;;;;;15.50;99.90;;;;;;5026221;28;19956;-69
2021/05/04 07:07:34;;;;;;;;;;;15.50;99.90;;;;;;5020751;28;19909;-69
2021/05/04 07:10:01;;;;;;;;;;;15.60;99.90;;;;;;5024567;28;19913;-69
2021/05/04 07:12:28;;;;;;;;;;;15.60;99.90;;;;;;5030870;28;19944;-71
2021/05/04 07:14:55;;;;;;;;;;;15.60;99.90;;;;;;5031126;28;19945;-70
2021/05/04 07:17:23;;;;;;;;;;;15.50;99.90;;;;;;5030898;28;19913;-68
2021/05/04 07:19:50;;;;;;;;;;;15.50;99.90;;;;;;5022489;28;19918;-68
2021/05/04 07:22:21;;;;;;;;;;;15.50;99.90;;;;;;5013206;28;20052;-68
2021/05/04 07:24:47;;;;;;;;;;;15.50;99.90;;;;;;5012897;28;20356;-69
2021/05/04 07:27:14;;;;;;;;;;;15.60;99.90;;;;;;5012938;28;19910;-69
2021/05/04 07:29:41;;;;;;;;;;;15.70;99.90;;;;;;5013119;28;19913;-69
2021/05/04 07:32:07;;;;;;;;;;;15.70;99.90;;;;;;5013087;28;19951;-69
2021/05/04 07:34:34;;;;;;;;;;;15.70;99.90;;;;;;5013238;28;19915;-69
2021/05/04 07:37:01;;;;;;;;;;;15.60;99.90;;;;;;5013073;28;19982;-69
2021/05/04 07:39:27;;;;;;;;;;;15.60;99.90;;;;;;5016474;28;20124;-69
2021/05/04 07:41:54;;;;;;;;;;;15.60;99.90;;;;;;5013625;28;20300;-69
2021/05/04 07:44:21;;;;;;;;;;;15.60;99.90;;;;;;5015014;28;19944;-69
2021/05/04 07:46:48;;;;;;;;;;;15.60;99.90;;;;;;5014806;28;19913;-69
2021/05/04 07:49:22;;;;;;;;;;;15.60;99.90;;;;;;5015238;28;19947;-70
2021/05/04 07:51:49;;;;;;;;;;;15.60;99.90;;;;;;5015221;28;19917;-69
2021/05/04 07:54:18;;;;;;;;;;;15.60;99.90;;;;;;5014357;28;19916;-68
2021/05/04 07:56:45;;;;;;;;;;;15.60;99.90;;;;;;5014290;28;19913;-69
2021/05/04 07:59:11;;;;;;;;;;;15.70;99.90;;;;;;5014586;28;19941;-70
2021/05/04 08:01:38;;;;;;;;;;;15.70;99.90;;;;;;5014661;28;19945;-69
2021/05/04 08:04:05;;;;;;;;;;;15.70;99.90;;;;;;5014364;28;20318;-72
2021/05/04 08:06:32;;;;;;;;;;;15.60;99.90;;;;;;5014270;28;19916;-70
2021/05/04 08:08:59;;;;;;;;;;;15.60;99.90;;;;;;4996773;28;19917;-71
2021/05/04 08:11:29;;;;;;;;;;;15.60;99.90;;;;;;5014510;28;19920;-69
2021/05/04 08:13:55;;;;;;;;;;;15.60;99.90;;;;;;5014512;28;19917;-69
2021/05/04 08:16:22;;;;;;;;;;;15.60;99.90;;;;;;5014354;28;19963;-69
2021/05/04 08:18:51;;;;;;;;;;;15.60;99.90;;;;;;5013802;28;19924;-72
2021/05/04 08:21:20;;;;;;;;;;;15.60;99.90;;;;;;5014279;28;19913;-69
2021/05/04 08:23:46;;;;;;;;;;;15.60;99.90;;;;;;5014052;28;19909;-69
2021/05/04 08:26:14;;;;;;;;;;;15.60;99.90;;;;;;5014319;28;19909;-69
2021/05/04 08:28:40;;;;;;;;;;;15.60;99.90;;;;;;5014042;28;20386;-68
2021/05/04 08:31:07;;;;;;;;;;;15.60;99.90;;;;;;4996336;28;19909;-69
2021/05/04 08:33:34;;;;;;;;;;;15.60;99.90;;;;;;5013283;28;19909;-69
2021/05/04 08:36:01;;;;;;;;;;;15.60;99.90;;;;;;5014086;28;20431;-70
2021/05/04 08:38:27;;;;;;;;;;;15.60;99.90;;;;;;5014555;28;19921;-71
2021/05/04 08:40:54;;;;;;;;;;;15.60;99.90;;;;;;5013510;28;19933;-70
2021/05/04 08:43:25;;;;;;;;;;;15.60;99.90;;;;;;5013888;28;19924;-70
2021/05/04 08:45:58;;;;;;;;;;;15.60;99.90;;;;;;5013611;28;19968;-69
2021/05/04 08:48:25;;;;;;;;;;;15.70;99.90;;;;;;5013447;28;20456;-72
2021/05/04 08:50:53;;;;;;;;;;;15.70;99.90;;;;;;5019587;28;19916;-70
2021/05/04 08:53:19;;;;;;;;;;;15.60;99.90;;;;;;5022563;28;19909;-72
2021/05/04 08:55:46;;;;;;;;;;;15.70;99.90;;;;;;5022794;28;20048;-69
2021/05/04 08:58:13;;;;;;;;;;;15.60;99.90;;;;;;5024857;28;19909;-67
2021/05/04 09:00:39;;;;;;;;;;;15.70;99.90;;;;;;5028410;28;19920;-71
2021/05/04 09:03:18;;;;;;;;;;;15.60;99.90;;;;;;5028533;28;19913;-69
2021/05/04 09:05:57;;;;;;;;;;;15.60;99.90;;;;;;5029836;28;19910;-69
2021/05/04 09:08:38;;;;;;;;;;;15.60;99.90;;;;;;5029670;28;19910;-69
2021/05/04 09:16:42;;;;;;;;;;;15.60;99.90;;;;;;5031270;28;19914;-70
2021/05/04 09:19:32;;;;;;;;;;;15.60;99.90;;;;;;5023769;28;20287;-69
2021/05/04 09:21:58;;;;;;;;;;;15.50;99.90;;;;;;5015546;28;19909;-69
2021/05/04 09:24:26;;;;;;;;;;;15.50;99.90;;;;;;5015339;28;19910;-69
2021/05/04 09:27:07;;;;;;;;;;;15.50;99.90;;;;;;5014760;28;19917;-69
2021/05/04 09:29:43;;;;;;;;;;;15.50;99.90;;;;;;5015274;28;20009;-72
2021/05/04 09:32:14;;;;;;;;;;;15.50;99.90;;;;;;5015382;28;19910;-69
2021/05/04 09:34:47;;;;;;;;;;;15.50;99.90;;;;;;5015254;28;19989;-72
2021/05/04 09:37:24;;;;;;;;;;;15.50;99.90;;;;;;5015075;28;20355;-71
2021/05/04 09:39:50;;;;;;;;;;;15.50;99.90;;;;;;5015112;28;19986;-71
2021/05/04 09:42:17;;;;;;;;;;;15.50;99.90;;;;;;5014445;28;19927;-69
2021/05/04 09:44:48;;;;;;;;;;;15.40;99.90;;;;;;5014809;28;19996;-71
2021/05/04 09:47:24;;;;;;;;;;;15.40;99.90;;;;;;5014718;28;20339;-69
2021/05/04 09:49:51;;;;;;;;;;;15.50;99.90;;;;;;5014898;28;19914;-71
2021/05/04 09:52:45;;;;;;;;;;;15.50;99.90;;;;;;5014415;28;20422;-72
2021/05/04 09:55:12;;;;;;;;;;;15.50;99.90;;;;;;5013873;28;19914;-70
2021/05/04 09:57:40;;;;;;;;;;;15.40;99.90;;;;;;5014327;28;19913;-70
2021/05/04 10:00:08;;;;;;;;;;;15.40;99.90;;;;;;5014022;28;19924;-72
2021/05/04 10:02:35;;;;;;;;;;;15.30;99.90;;;;;;5014305;28;19913;-72
2021/05/04 10:05:02;;;;;;;;;;;15.40;99.90;;;;;;5014209;28;19909;-72
2021/05/04 10:07:32;;;;;;;;;;;15.30;99.90;;;;;;5014485;28;19952;-69
2021/05/04 10:10:00;;;;;;;;;;;15.30;99.90;;;;;;5014332;28;19916;-72
2021/05/04 10:12:28;;;;;;;;;;;15.20;99.90;;;;;;5013885;28;19963;-72
2021/05/04 10:14:57;;;;;;;;;;;15.20;99.90;;;;;;5014128;28;19913;-71
2021/05/04 10:17:24;;;;;;;;;;;15.30;99.90;;;;;;5014366;28;19967;-71
2021/05/04 10:19:51;;;;;;;;;;;15.20;99.90;;;;;;5014187;28;20060;-71
2021/05/04 10:22:18;;;;;;;;;;;15.20;99.90;;;;;;5014111;28;19917;-70
2021/05/04 10:24:45;;;;;;;;;;;15.20;99.90;;;;;;5013947;28;19996;-69
2021/05/04 10:27:12;;;;;;;;;;;15.20;99.90;;;;;;5013881;28;19954;-71
2021/05/04 10:29:40;;;;;;;;;;;15.30;99.90;;;;;;5013840;28;20047;-72
2021/05/04 10:32:11;;;;;;;;;;;15.30;99.90;;;;;;5013980;28;19916;-70
2021/05/04 10:34:39;;;;;;;;;;;15.20;99.90;;;;;;5014094;28;19909;-71
2021/05/04 10:37:14;;;;;;;;;;;15.20;99.90;;;;;;5013577;28;19916;-70
2021/05/04 10:39:41;;;;;;;;;;;15.20;99.90;;;;;;5013707;28;19921;-71
2021/05/04 10:42:33;;;;;;;;;;;15.10;99.90;;;;;;5013381;28;19921;-72
2021/05/04 10:45:00;;;;;;;;;;;15.10;99.90;;;;;;5013587;28;19910;-70
2021/05/04 10:47:46;;;;;;;;;;;15.20;99.90;;;;;;5013590;28;20000;-69
2021/05/04 10:50:15;;;;;;;;;;;15.10;99.90;;;;;;5013560;28;19914;-69
2021/05/04 10:52:52;;;;;;;;;;;15.10;99.90;;;;;;5013582;28;19955;-71
2021/05/04 10:55:19;;;;;;;;;;;15.20;99.90;;;;;;5013592;28;20283;-69
2021/05/04 10:58:01;;;;;;;;;;;15.10;99.90;;;;;;5013423;28;19909;-69
2021/05/04 11:00:46;;;;;;;;;;;15.10;99.90;;;;;;5013278;28;19917;-71
2021/05/04 11:03:34;;;;;;;;;;;15.20;99.90;;;;;;5013559;28;20404;-72
2021/05/04 11:06:02;;;;;;;;;;;15.20;99.90;;;;;;5013418;28;19941;-70
2021/05/04 11:08:44;;;;;;;;;;;15.20;99.90;;;;;;5013396;28;19916;-70
2021/05/04 11:11:26;;;;;;;;;;;15.30;99.90;;;;;;5013313;28;19910;-70
2021/05/04 11:13:54;;;;;;;;;;;15.20;99.90;;;;;;5012802;28;19916;-72
2021/05/04 11:16:53;;;;;;;;;;;15.20;99.90;;;;;;5013486;28;20296;-70
2021/05/04 11:19:28;;;;;;;;;;;15.20;99.90;;;;;;4970278;28;19925;-71
2021/05/04 11:21:57;;;;;;;;;;;15.20;99.90;;;;;;5013530;28;19909;-71
2021/05/04 11:24:30;;;;;;;;;;;15.20;99.90;;;;;;5013307;28;20016;-70
2021/05/04 11:26:58;;;;;;;;;;;15.20;99.90;;;;;;5013094;28;20360;-69
2021/05/04 11:29:38;;;;;;;;;;;15.10;99.90;;;;;;5013067;28;20323;-72
2021/05/04 11:32:07;;;;;;;;;;;15.20;99.90;;;;;;5013239;28;19944;-72
2021/05/04 11:34:42;;;;;;;;;;;15.20;99.90;;;;;;5011373;28;20008;-70
2021/05/04 11:37:21;;;;;;;;;;;15.20;99.90;;;;;;4993482;28;19910;-68
2021/05/04 11:39:50;;;;;;;;;;;15.20;99.90;;;;;;4993294;28;20357;-67
2021/05/04 11:42:18;;;;;;;;;;;15.20;99.90;;;;;;4990911;28;19926;-69
2021/05/04 11:44:45;;;;;;;;;;;15.20;99.90;;;;;;4991256;28;19914;-67
2021/05/04 11:47:25;;;;;;;;;;;15.10;99.90;;;;;;4990973;28;19918;-69
2021/05/04 11:50:01;;;;;;;;;;;15.10;99.90;;;;;;4991246;28;19916;-70
2021/05/04 11:52:28;;;;;;;;;;;15.10;99.90;;;;;;4991483;28;20361;-69
2021/05/04 11:55:15;;;;;;;;;;;15.10;99.90;;;;;;4990746;28;19910;-70
2021/05/04 11:57:42;;;;;;;;;;;15.00;99.90;;;;;;4990981;28;19918;-69
2021/05/04 12:00:15;;;;;;;;;;;15.00;99.90;;;;;;4991170;28;19921;-70
2021/05/04 12:02:41;;;;;;;;;;;14.90;99.90;;;;;;4973245;28;19944;-70
2021/05/04 12:05:08;;;;;;;;;;;15.00;99.90;;;;;;4991031;28;20356;-69
2021/05/04 12:07:35;;;;;;;;;;;15.00;99.90;;;;;;4990710;28;20285;-68
2021/05/04 12:10:03;;;;;;;;;;;14.90;99.90;;;;;;4991070;28;19955;-70
2021/05/04 12:12:40;;;;;;;;;;;15.00;99.90;;;;;;4990912;28;20274;-70
2021/05/04 12:15:07;;;;;;;;;;;15.00;99.90;;;;;;4990857;28;19910;-71
2021/05/04 12:17:33;;;;;;;;;;;15.00;99.90;;;;;;4990636;28;19917;-67
2021/05/04 12:20:16;;;;;;;;;;;14.90;99.90;;;;;;4990886;28;19934;-69
2021/05/04 12:22:43;;;;;;;;;;;14.90;99.90;;;;;;4990633;28;19910;-68
2021/05/04 12:25:11;;;;;;;;;;;14.90;99.90;;;;;;4993901;28;20372;-71
2021/05/04 12:27:37;;;;;;;;;;;14.90;99.90;;;;;;4994607;28;19914;-70
2021/05/04 12:30:05;;;;;;;;;;;14.90;99.90;;;;;;4994486;28;19910;-71
2021/05/04 12:32:31;;;;;;;;;;;14.90;99.90;;;;;;4993930;28;19910;-69
2021/05/04 12:35:19;;;;;;;;;;;14.90;99.90;;;;;;4993874;28;20324;-71
2021/05/04 12:37:48;;;;;;;;;;;14.90;99.90;;;;;;4976972;28;19914;-66
2021/05/04 12:40:19;;;;;;;;;;;14.90;99.90;;;;;;4994231;28;19945;-69
2021/05/04 12:42:50;;;;;;;;;;;14.80;99.90;;;;;;4993797;28;19926;-69
2021/05/04 12:45:17;;;;;;;;;;;14.90;99.90;;;;;;4994545;28;20333;-71
2021/05/04 12:47:51;;;;;;;;;;;14.80;99.90;;;;;;4993421;28;19949;-71
2021/05/04 12:50:34;;;;;;;;;;;14.80;99.90;;;;;;4994747;28;19910;-71
2021/05/04 12:53:02;;;;;;;;;;;14.80;99.90;;;;;;4993980;28;19924;-68
2021/05/04 12:55:30;;;;;;;;;;;14.70;99.90;;;;;;4993925;28;19956;-69
2021/05/04 12:58:13;;;;;;;;;;;14.70;99.90;;;;;;4994080;28;19910;-68
2021/05/04 13:00:40;;;;;;;;;;;14.80;99.90;;;;;;4993552;28;19996;-69
2021/05/04 13:03:12;;;;;;;;;;;14.80;99.90;;;;;;4993514;28;20183;-69
2021/05/04 13:05:39;;;;;;;;;;;14.70;99.90;;;;;;4993865;28;19916;-70
2021/05/04 13:08:08;;;;;;;;;;;14.70;99.90;;;;;;4993903;28;20357;-71
2021/05/04 13:13:40;;;;;;;;;;;14.70;99.90;;;;;;4993448;28;19921;-69
2021/05/04 13:28:21;;;;;;;;;;;14.60;99.90;;;;;;4992450;28;20052;-71
2021/05/04 13:32:19;;;;;;;;;;;14.70;99.90;;;;;;4993539;28;20353;-68
2021/05/04 13:37:18;;;;;;;;;;;14.60;99.90;;;;;;4993042;28;19964;-70
2021/05/04 13:40:06;;;;;;;;;;;14.70;99.90;;;;;;4992616;28;19918;-71
2021/05/04 13:48:11;;;;;;;;;;;14.70;99.90;;;;;;4993371;28;19953;-71
2021/05/04 13:50:32;;;;;;;;;;;14.70;99.90;;;;;;4992396;28;19918;-68
2021/05/04 13:52:59;;;;;;;;;;;14.80;99.90;;;;;;4992471;28;19914;-68
2021/05/04 13:55:25;;;;;;;;;;;14.80;99.90;;;;;;4992884;28;20013;-68
2021/05/04 13:57:55;;;;;;;;;;;14.80;99.90;;;;;;4993183;28;19937;-68
2021/05/04 14:00:32;;;;;;;;;;;14.80;99.90;;;;;;4992736;28;20335;-69
2021/05/04 14:03:08;;;;;;;;;;;14.80;99.90;;;;;;4992667;28;19914;-68
2021/05/04 14:06:02;;;;;;;;;;;;;;;;;;;;;
2021/05/04 14:26:54;;;;;;;;;;;14.80;99.90;;;;;;4992536;28;20345;-69
2021/05/04 14:29:21;;;;;;;;;;;14.80;99.90;;;;;;4992283;28;20339;-69
2021/05/04 14:31:47;;;;;;;;;;;14.80;99.90;;;;;;4992098;28;19914;-69
2021/05/04 14:34:14;;;;;;;;;;;14.70;99.90;;;;;;4992380;28;19910;-68
2021/05/04 14:39:28;;;;;;;;;;;14.70;99.90;;;;;;4992072;28;19917;-68
2021/05/04 14:58:42;;;;;;;;;;;14.60;99.90;;;;;;4990925;28;21597;-68
2021/05/04 15:03:47;;;;;;;;;;;14.60;99.90;;;;;;4991918;28;19933;-69
2021/05/04 15:06:14;;;;;;;;;;;14.60;99.90;;;;;;4991606;28;19917;-68
2021/05/04 15:08:40;;;;;;;;;;;14.60;99.90;;;;;;4991807;28;19914;-68
2021/05/04 15:11:08;;;;;;;;;;;14.70;99.90;;;;;;4991059;28;19969;-68
2021/05/04 15:13:37;;;;;;;;;;;14.60;99.90;;;;;;4991814;28;19917;-69
2021/05/04 15:23:47;;;;;;;;;;;14.50;99.90;;;;;;4991343;28;19910;-69
2021/05/04 15:26:14;;;;;;;;;;;14.50;99.90;;;;;;4991383;28;19956;-71
2021/05/04 15:28:41;;;;;;;;;;;14.50;99.90;;;;;;4991891;28;20272;-70
2021/05/04 15:31:07;;;;;;;;;;;14.50;99.90;;;;;;4991443;28;19964;-71
2021/05/04 15:33:39;;;;;;;;;;;14.50;99.90;;;;;;4991406;28;19914;-70
2021/05/04 15:36:12;;;;;;;;;;;14.50;99.90;;;;;;4991742;28;19910;-70
2021/05/04 15:38:38;;;;;;;;;;;14.50;99.90;;;;;;4991094;28;19956;-69
2021/05/04 15:41:05;;;;;;;;;;;14.50;99.90;;;;;;4973471;28;20290;-69
2021/05/04 15:43:32;;;;;;;;;;;14.50;99.90;;;;;;4991516;28;19928;-71
2021/05/04 15:48:51;;;;;;;;;;;14.40;99.90;;;;;;4991315;28;19913;-70